Time;durP1;ratioP1;P1;durP2;ratioP2;P2;SDS_P1;SDS_P2;PMS_P1;PMS_P2;Temp;Humidity;BMP_temperature;BMP_pressure;BME280_temperature;BME280_humidity;BME280_pressure;Samples;Min_cycle;Max_cycle;Signal;HPM_P1;HPM_P2
2021/05/29 00:01:56;;;;;;;7.10;4.97;;;;;;;;;;5035546;28;20429;-68
2021/05/29 00:04:22;;;;;;;7.53;4.30;;;;;;;;;;5034096;28;20426;-68
2021/05/29 00:06:48;;;;;;;5.80;4.23;;;;;;;;;;5032714;28;20414;-68
2021/05/29 00:09:14;;;;;;;5.60;4.10;;;;;;;;;;5032753;28;20445;-69
2021/05/29 00:11:41;;;;;;;8.43;4.53;;;;;;;;;;5034053;28;20537;-68
2021/05/29 00:14:07;;;;;;;5.20;3.70;;;;;;;;;;5034434;28;20864;-67
2021/05/29 00:16:33;;;;;;;7.27;4.07;;;;;;;;;;5033791;28;20431;-68
2021/05/29 00:18:59;;;;;;;5.43;4.00;;;;;;;;;;5036527;28;20479;-67
2021/05/29 00:21:25;;;;;;;8.27;4.23;;;;;;;;;;5033944;28;20429;-67
2021/05/29 00:23:51;;;;;;;6.57;4.00;;;;;;;;;;5042781;28;20422;-67
2021/05/29 00:26:17;;;;;;;7.40;4.37;;;;;;;;;;5035717;28;20430;-67
2021/05/29 00:28:43;;;;;;;5.17;3.80;;;;;;;;;;5032487;28;20518;-67
2021/05/29 00:31:09;;;;;;;7.17;4.07;;;;;;;;;;5032880;28;20441;-67
2021/05/29 00:33:35;;;;;;;6.30;4.00;;;;;;;;;;5033385;28;20416;-68
2021/05/29 00:36:01;;;;;;;5.40;4.00;;;;;;;;;;5033918;28;20487;-67
2021/05/29 00:38:28;;;;;;;5.83;3.50;;;;;;;;;;5033172;28;20446;-67
2021/05/29 00:40:54;;;;;;;5.10;4.03;;;;;;;;;;5031749;28;20831;-69
2021/05/29 00:43:20;;;;;;;6.27;3.90;;;;;;;;;;5032428;28;20483;-69
2021/05/29 00:45:46;;;;;;;5.80;4.37;;;;;;;;;;5029041;28;20938;-69
2021/05/29 00:48:12;;;;;;;9.00;5.43;;;;;;;;;;5033624;28;20492;-69
2021/05/29 00:50:47;;;;;;;4.70;3.53;;;;;;;;;;5032565;28;20487;-69
2021/05/29 00:53:14;;;;;;;5.60;4.03;;;;;;;;;;5030539;28;20489;-69
2021/05/29 00:55:40;;;;;;;4.50;2.87;;;;;;;;;;5033860;28;22561;-69
2021/05/29 00:58:06;;;;;;;4.80;3.33;;;;;;;;;;5033297;28;20445;-69
2021/05/29 01:00:32;;;;;;;4.53;3.10;;;;;;;;;;5036386;28;20962;-69
2021/05/29 01:02:59;;;;;;;4.50;3.40;;;;;;;;;;5037677;28;20926;-69
2021/05/29 01:05:25;;;;;;;5.10;2.50;;;;;;;;;;5051875;28;20452;-69
2021/05/29 01:07:52;;;;;;;3.40;2.70;;;;;;;;;;5036779;28;20483;-69
2021/05/29 01:10:19;;;;;;;3.87;2.60;;;;;;;;;;5035785;28;20433;-69
2021/05/29 01:12:45;;;;;;;7.00;5.23;;;;;;;;;;5036067;28;20946;-69
2021/05/29 01:15:12;;;;;;;3.50;2.93;;;;;;;;;;5036509;28;20808;-68
2021/05/29 01:17:39;;;;;;;4.20;3.33;;;;;;;;;;5035340;28;20437;-69
2021/05/29 01:20:06;;;;;;;3.97;3.40;;;;;;;;;;5035219;28;20469;-69
2021/05/29 01:22:51;;;;;;;3.63;2.77;;;;;;;;;;5033118;28;21410;-69
2021/05/29 01:25:20;;;;;;;4.00;2.70;;;;;;;;;;5036125;28;20480;-69
2021/05/29 01:27:46;;;;;;;4.67;3.00;;;;;;;;;;5034928;28;20548;-69
2021/05/29 01:30:13;;;;;;;3.63;2.70;;;;;;;;;;5037128;28;20828;-69
2021/05/29 01:32:40;;;;;;;4.77;3.40;;;;;;;;;;5037426;28;20426;-69
2021/05/29 01:35:08;;;;;;;5.03;3.37;;;;;;;;;;5034578;28;20437;-69
2021/05/29 01:37:35;;;;;;;3.30;2.73;;;;;;;;;;5036637;28;20529;-69
2021/05/29 01:40:01;;;;;;;4.90;3.00;;;;;;;;;;5037134;28;20457;-69
2021/05/29 01:42:30;;;;;;;4.60;3.30;;;;;;;;;;5036121;28;20518;-69
2021/05/29 01:44:57;;;;;;;4.20;3.23;;;;;;;;;;5037377;28;20809;-69
2021/05/29 01:47:23;;;;;;;3.97;3.10;;;;;;;;;;5035805;28;21019;-69
2021/05/29 01:49:49;;;;;;;3.10;2.50;;;;;;;;;;5035507;28;20417;-67
2021/05/29 01:52:15;;;;;;;5.30;3.40;;;;;;;;;;5034944;28;20437;-67
2021/05/29 01:54:41;;;;;;;4.40;3.17;;;;;;;;;;5035247;28;20513;-68
2021/05/29 01:57:07;;;;;;;4.90;3.17;;;;;;;;;;5035741;28;20457;-67
2021/05/29 01:59:33;;;;;;;8.27;3.50;;;;;;;;;;5056080;23;21126;-69
2021/05/29 02:01:59;;;;;;;4.03;3.20;;;;;;;;;;5034300;28;20789;-68
2021/05/29 02:04:25;;;;;;;6.10;3.40;;;;;;;;;;5044643;28;20441;-68
2021/05/29 02:06:51;;;;;;;4.17;3.33;;;;;;;;;;5035096;28;20410;-69
2021/05/29 02:09:17;;;;;;;3.97;3.20;;;;;;;;;;5020165;28;20790;-68
2021/05/29 02:11:43;;;;;;;4.40;3.27;;;;;;;;;;5012311;28;20717;-69
2021/05/29 02:14:10;;;;;;;4.10;2.77;;;;;;;;;;5011502;28;20507;-68
2021/05/29 02:16:36;;;;;;;5.20;3.47;;;;;;;;;;5012858;28;20423;-69
2021/05/29 02:19:02;;;;;;;5.83;3.57;;;;;;;;;;5012305;28;21237;-69
2021/05/29 02:21:28;;;;;;;3.33;2.97;;;;;;;;;;5012789;28;20755;-68
2021/05/29 02:23:54;;;;;;;4.60;3.60;;;;;;;;;;5011024;28;21110;-69
2021/05/29 02:26:21;;;;;;;4.37;3.37;;;;;;;;;;5010814;28;20423;-69
2021/05/29 02:28:54;;;;;;;3.87;2.93;;;;;;;;;;5010192;28;21868;-69
2021/05/29 02:31:20;;;;;;;4.90;3.90;;;;;;;;;;5010680;28;20549;-69
2021/05/29 02:33:47;;;;;;;4.30;3.40;;;;;;;;;;5014415;28;20949;-68
2021/05/29 02:36:13;;;;;;;5.17;3.63;;;;;;;;;;5010571;28;20950;-69
2021/05/29 02:38:39;;;;;;;5.50;3.20;;;;;;;;;;5011615;28;20477;-68
2021/05/29 02:41:07;;;;;;;4.33;3.30;;;;;;;;;;5009053;28;20513;-69
2021/05/29 02:43:34;;;;;;;4.50;3.57;;;;;;;;;;5011644;28;20533;-68
2021/05/29 02:46:00;;;;;;;4.90;3.53;;;;;;;;;;5012807;28;23261;-67
2021/05/29 02:48:26;;;;;;;3.97;3.50;;;;;;;;;;5010754;28;20997;-69
2021/05/29 02:50:52;;;;;;;4.30;3.50;;;;;;;;;;5008422;28;20431;-68
2021/05/29 02:53:18;;;;;;;6.17;4.33;;;;;;;;;;5010745;28;20493;-68
2021/05/29 02:55:44;;;;;;;4.83;3.67;;;;;;;;;;5012562;28;20840;-68
2021/05/29 02:58:11;;;;;;;7.67;4.63;;;;;;;;;;5010389;28;20454;-69
2021/05/29 03:00:39;;;;;;;4.57;4.03;;;;;;;;;;5012371;28;20459;-69
2021/05/29 03:03:07;;;;;;;5.87;4.90;;;;;;;;;;5009729;28;20422;-68
2021/05/29 03:05:34;;;;;;;5.43;3.50;;;;;;;;;;5013377;28;21278;-68
2021/05/29 03:08:00;;;;;;;5.27;4.07;;;;;;;;;;5008936;28;20798;-68
2021/05/29 03:10:26;;;;;;;4.80;3.67;;;;;;;;;;5008045;28;20426;-69
2021/05/29 03:12:53;;;;;;;5.17;3.70;;;;;;;;;;5016582;28;20430;-68
2021/05/29 03:15:21;;;;;;;6.00;4.63;;;;;;;;;;5015504;28;20868;-68
2021/05/29 03:17:48;;;;;;;9.53;5.10;;;;;;;;;;5007700;28;20904;-69
2021/05/29 03:20:15;;;;;;;6.20;4.00;;;;;;;;;;5007940;28;20553;-68
2021/05/29 03:22:41;;;;;;;5.13;3.70;;;;;;;;;;5007419;28;20423;-68
2021/05/29 03:25:08;;;;;;;5.07;4.30;;;;;;;;;;5010953;28;20422;-69
2021/05/29 03:27:35;;;;;;;5.77;4.17;;;;;;;;;;5013793;28;20426;-68
2021/05/29 03:30:01;;;;;;;5.17;4.03;;;;;;;;;;5014150;28;20811;-68
2021/05/29 03:32:27;;;;;;;6.67;3.40;;;;;;;;;;5011691;28;20755;-68
2021/05/29 03:34:53;;;;;;;4.37;3.83;;;;;;;;;;5009924;28;20419;-66
2021/05/29 03:37:19;;;;;;;6.40;3.93;;;;;;;;;;5013686;28;20454;-66
2021/05/29 03:39:45;;;;;;;5.43;4.27;;;;;;;;;;5011991;28;20464;-66
2021/05/29 03:42:11;;;;;;;4.90;3.50;;;;;;;;;;5009538;28;20942;-66
2021/05/29 03:44:37;;;;;;;5.37;4.00;;;;;;;;;;5020656;28;20918;-66
2021/05/29 03:47:03;;;;;;;7.07;4.33;;;;;;;;;;5012595;28;20426;-66
2021/05/29 03:49:29;;;;;;;6.23;3.80;;;;;;;;;;5009600;28;20548;-66
2021/05/29 03:51:56;;;;;;;4.80;3.80;;;;;;;;;;5011622;28;20480;-66
2021/05/29 03:54:22;;;;;;;5.53;3.97;;;;;;;;;;5012464;28;20426;-66
2021/05/29 03:56:48;;;;;;;4.97;4.07;;;;;;;;;;5012110;28;20422;-66
2021/05/29 03:59:15;;;;;;;4.73;4.10;;;;;;;;;;5011063;28;20479;-66
2021/05/29 04:01:44;;;;;;;5.30;3.43;;;;;;;;;;5008584;28;20465;-66
2021/05/29 04:04:10;;;;;;;5.13;3.90;;;;;;;;;;5009993;28;20422;-66
2021/05/29 04:06:36;;;;;;;6.60;3.60;;;;;;;;;;5010677;28;20841;-66
2021/05/29 04:09:04;;;;;;;4.30;3.53;;;;;;;;;;5010353;28;20484;-66
2021/05/29 04:11:30;;;;;;;4.77;3.63;;;;;;;;;;5012645;28;20424;-66
2021/05/29 04:13:56;;;;;;;5.77;3.67;;;;;;;;;;5012736;28;20428;-66
2021/05/29 04:16:22;;;;;;;4.13;3.10;;;;;;;;;;5010659;28;20430;-66
2021/05/29 04:18:48;;;;;;;4.27;3.40;;;;;;;;;;5010046;28;20443;-66
2021/05/29 04:21:14;;;;;;;4.83;3.80;;;;;;;;;;5011505;28;20437;-66
2021/05/29 04:23:41;;;;;;;6.00;4.10;;;;;;;;;;5025194;28;20785;-66
2021/05/29 04:26:07;;;;;;;5.80;4.07;;;;;;;;;;5012177;28;20504;-66
2021/05/29 04:28:38;;;;;;;3.80;3.33;;;;;;;;;;5011402;28;20854;-66
2021/05/29 04:31:05;;;;;;;4.03;3.23;;;;;;;;;;5008875;28;20904;-66
2021/05/29 04:33:31;;;;;;;4.40;3.30;;;;;;;;;;5010490;28;20426;-66
2021/05/29 04:35:57;;;;;;;5.67;4.17;;;;;;;;;;5012902;28;20424;-67
2021/05/29 04:38:23;;;;;;;8.73;4.37;;;;;;;;;;5011015;28;20481;-66
2021/05/29 04:40:50;;;;;;;5.83;3.13;;;;;;;;;;5013874;28;20901;-67
2021/05/29 04:43:16;;;;;;;4.27;3.60;;;;;;;;;;5029872;28;21092;-66
2021/05/29 04:45:42;;;;;;;5.37;3.53;;;;;;;;;;5011224;28;20411;-66
2021/05/29 04:48:09;;;;;;;5.30;4.27;;;;;;;;;;5013062;28;20438;-67
2021/05/29 04:51:11;;;;;;;5.30;4.10;;;;;;;;;;5013727;28;20461;-66
2021/05/29 04:53:22;;;;;;;4.73;4.23;;;;;;;;;;5013118;28;20575;-66
2021/05/29 04:55:48;;;;;;;4.07;3.67;;;;;;;;;;5017955;28;20439;-67
2021/05/29 04:58:14;;;;;;;4.00;3.57;;;;;;;;;;5016484;28;20493;-67
2021/05/29 05:00:40;;;;;;;5.03;3.00;;;;;;;;;;5012509;28;22672;-67
2021/05/29 05:03:06;;;;;;;7.13;3.90;;;;;;;;;;5012234;28;20518;-67
2021/05/29 05:05:32;;;;;;;4.87;3.43;;;;;;;;;;5010860;28;20426;-66
2021/05/29 05:07:58;;;;;;;4.93;3.50;;;;;;;;;;5013938;28;20439;-66
2021/05/29 05:10:25;;;;;;;4.20;3.27;;;;;;;;;;5015014;28;20848;-66
2021/05/29 05:12:51;;;;;;;6.03;3.60;;;;;;;;;;5015236;28;20419;-67
2021/05/29 05:15:17;;;;;;;4.50;3.13;;;;;;;;;;5016018;28;20423;-66
2021/05/29 05:17:43;;;;;;;4.07;3.30;;;;;;;;;;5012673;28;20426;-66
2021/05/29 05:20:10;;;;;;;5.63;3.77;;;;;;;;;;5014110;28;20455;-66
2021/05/29 05:22:36;;;;;;;5.70;3.23;;;;;;;;;;5015018;28;20423;-67
2021/05/29 05:25:06;;;;;;;7.57;3.93;;;;;;;;;;5012241;28;20437;-66
2021/05/29 05:27:32;;;;;;;4.00;3.27;;;;;;;;;;5012392;28;20408;-66
2021/05/29 05:29:59;;;;;;;7.73;3.10;;;;;;;;;;5014374;28;20492;-67
2021/05/29 05:32:27;;;;;;;4.33;3.10;;;;;;;;;;5014462;28;20463;-66
2021/05/29 05:34:53;;;;;;;4.60;3.73;;;;;;;;;;5015477;28;20427;-66
2021/05/29 05:37:19;;;;;;;3.57;3.07;;;;;;;;;;5012858;28;20424;-66
2021/05/29 05:39:45;;;;;;;6.10;4.00;;;;;;;;;;5015555;28;20469;-66
2021/05/29 05:42:11;;;;;;;5.07;3.47;;;;;;;;;;5013596;28;20419;-66
2021/05/29 05:44:37;;;;;;;7.83;3.97;;;;;;;;;;5010603;28;20511;-66
2021/05/29 05:47:04;;;;;;;5.70;3.33;;;;;;;;;;5011718;28;20426;-66
2021/05/29 05:49:30;;;;;;;4.10;3.50;;;;;;;;;;5013855;28;20827;-67
2021/05/29 05:51:56;;;;;;;4.60;3.60;;;;;;;;;;5013740;28;20453;-66
2021/05/29 05:54:22;;;;;;;4.77;3.33;;;;;;;;;;5014160;28;20427;-66
2021/05/29 05:56:48;;;;;;;7.20;3.47;;;;;;;;;;5012972;28;20449;-66
2021/05/29 05:59:14;;;;;;;4.73;3.40;;;;;;;;;;5014089;28;20890;-66
2021/05/29 06:01:40;;;;;;;3.70;2.87;;;;;;;;;;5012161;28;20782;-66
2021/05/29 06:04:06;;;;;;;3.33;2.50;;;;;;;;;;5013514;28;20419;-66
2021/05/29 06:06:32;;;;;;;5.53;3.17;;;;;;;;;;5008880;28;20427;-66
2021/05/29 06:08:58;;;;;;;4.03;2.90;;;;;;;;;;5012208;28;20460;-66
2021/05/29 06:11:24;;;;;;;5.30;3.00;;;;;;;;;;5012392;28;20781;-66
2021/05/29 06:21:28;;;;;;;4.10;2.83;;;;;;;;;;5010935;28;20545;-66
2021/05/29 06:23:54;;;;;;;5.33;2.50;;;;;;;;;;5011891;28;20434;-66
2021/05/29 06:26:20;;;;;;;4.33;2.70;;;;;;;;;;5013215;28;20514;-66
2021/05/29 06:28:46;;;;;;;4.00;3.10;;;;;;;;;;5011431;28;20484;-66
2021/05/29 06:31:13;;;;;;;6.90;3.20;;;;;;;;;;5013581;28;20442;-66
2021/05/29 06:33:39;;;;;;;4.13;3.27;;;;;;;;;;5019230;28;20431;-66
2021/05/29 06:36:05;;;;;;;4.73;2.70;;;;;;;;;;5016614;28;20427;-66
2021/05/29 06:38:31;;;;;;;3.77;2.97;;;;;;;;;;5012816;28;20504;-66
2021/05/29 06:40:57;;;;;;;4.23;3.33;;;;;;;;;;5013376;28;20462;-66
2021/05/29 06:43:23;;;;;;;6.50;3.47;;;;;;;;;;5014493;28;20423;-66
2021/05/29 06:45:50;;;;;;;4.70;2.50;;;;;;;;;;5013419;28;20529;-66
2021/05/29 06:48:18;;;;;;;4.07;2.20;;;;;;;;;;5012879;28;20443;-66
2021/05/29 06:50:50;;;;;;;3.80;2.90;;;;;;;;;;5007808;28;21044;-66
2021/05/29 06:53:21;;;;;;;3.77;2.57;;;;;;;;;;5019036;28;20430;-66
2021/05/29 07:01:07;;;;;;;4.47;2.57;;;;;;;;;;5013571;28;20491;-66
2021/05/29 07:03:33;;;;;;;4.30;2.77;;;;;;;;;;5012451;28;20424;-66
2021/05/29 07:05:59;;;;;;;3.23;2.70;;;;;;;;;;5025987;28;20433;-66
2021/05/29 07:08:25;;;;;;;3.90;2.40;;;;;;;;;;5010704;28;20438;-66
2021/05/29 07:10:51;;;;;;;6.70;3.00;;;;;;;;;;5010218;28;20439;-66
2021/05/29 07:13:17;;;;;;;3.33;2.63;;;;;;;;;;5011026;28;20437;-66
2021/05/29 07:15:43;;;;;;;3.47;2.73;;;;;;;;;;5011427;28;20430;-66
2021/05/29 07:18:11;;;;;;;3.83;2.77;;;;;;;;;;5011339;28;21003;-66
2021/05/29 07:20:38;;;;;;;4.23;2.50;;;;;;;;;;5009104;28;20482;-66
2021/05/29 07:23:05;;;;;;;4.47;2.37;;;;;;;;;;5011039;28;20441;-66
2021/05/29 07:25:31;;;;;;;4.97;2.83;;;;;;;;;;5011010;28;20426;-66
2021/05/29 07:27:57;;;;;;;3.50;2.00;;;;;;;;;;5011337;28;20446;-66
2021/05/29 07:30:23;;;;;;;4.77;2.33;;;;;;;;;;5010975;28;20498;-66
2021/05/29 07:32:50;;;;;;;4.93;2.50;;;;;;;;;;5010818;28;20422;-66
2021/05/29 07:35:16;;;;;;;8.43;2.73;;;;;;;;;;5009581;28;20423;-66
2021/05/29 07:37:43;;;;;;;3.13;2.00;;;;;;;;;;5010664;28;20438;-66
2021/05/29 07:40:09;;;;;;;5.00;2.90;;;;;;;;;;5011973;28;20953;-67
2021/05/29 07:42:36;;;;;;;3.23;2.33;;;;;;;;;;5009411;28;20514;-66
2021/05/29 07:45:02;;;;;;;4.33;2.23;;;;;;;;;;5011367;28;20782;-66
2021/05/29 07:47:28;;;;;;;3.63;2.43;;;;;;;;;;5011608;28;20449;-67
2021/05/29 07:49:54;;;;;;;4.03;2.70;;;;;;;;;;5009593;28;20500;-67
2021/05/29 07:52:20;;;;;;;2.70;2.30;;;;;;;;;;5012557;28;20423;-68
2021/05/29 07:54:46;;;;;;;3.43;2.30;;;;;;;;;;5012463;28;20418;-67
2021/05/29 07:57:12;;;;;;;3.77;1.93;;;;;;;;;;5011062;28;20432;-67
2021/05/29 07:59:39;;;;;;;2.70;2.03;;;;;;;;;;5012281;28;20598;-68
2021/05/29 08:02:05;;;;;;;2.97;1.90;;;;;;;;;;5012023;28;20426;-68
2021/05/29 08:04:31;;;;;;;3.27;1.47;;;;;;;;;;5013222;28;20433;-68
2021/05/29 08:06:58;;;;;;;3.63;1.90;;;;;;;;;;5011481;28;22606;-67
2021/05/29 08:09:24;;;;;;;2.60;1.80;;;;;;;;;;5014734;28;20454;-68
2021/05/29 08:11:50;;;;;;;3.33;2.00;;;;;;;;;;5018064;28;21891;-68
2021/05/29 08:14:17;;;;;;;3.23;2.20;;;;;;;;;;5019171;28;20465;-68
2021/05/29 08:16:43;;;;;;;4.13;2.23;;;;;;;;;;5018522;28;20437;-68
2021/05/29 08:19:13;;;;;;;7.40;2.33;;;;;;;;;;5019108;28;20500;-68
2021/05/29 08:21:40;;;;;;;4.50;2.27;;;;;;;;;;5018518;28;20429;-67
2021/05/29 08:24:06;;;;;;;3.93;2.30;;;;;;;;;;5019862;28;20828;-70
2021/05/29 08:26:32;;;;;;;2.87;2.10;;;;;;;;;;5018280;28;20422;-68
2021/05/29 08:28:58;;;;;;;4.70;2.40;;;;;;;;;;5017601;28;20442;-69
2021/05/29 08:31:25;;;;;;;3.17;2.03;;;;;;;;;;5020339;28;20435;-68
2021/05/29 08:33:51;;;;;;;3.10;2.37;;;;;;;;;;5027797;28;20427;-69
2021/05/29 08:36:17;;;;;;;4.30;2.53;;;;;;;;;;5020153;28;20422;-70
2021/05/29 08:38:44;;;;;;;3.47;2.30;;;;;;;;;;5019084;28;20476;-70
2021/05/29 08:41:11;;;;;;;4.07;2.37;;;;;;;;;;5020115;28;20511;-70
2021/05/29 08:43:37;;;;;;;3.30;2.13;;;;;;;;;;5019203;28;20455;-70
2021/05/29 08:46:04;;;;;;;2.40;1.70;;;;;;;;;;5019682;28;20430;-69
2021/05/29 08:48:30;;;;;;;4.30;2.90;;;;;;;;;;5018398;28;20508;-69
2021/05/29 08:51:17;;;;;;;2.63;2.00;;;;;;;;;;5027241;28;20430;-69
2021/05/29 08:53:43;;;;;;;2.60;1.97;;;;;;;;;;5020002;28;21134;-69
2021/05/29 08:56:09;;;;;;;3.43;1.97;;;;;;;;;;5016809;28;20545;-69
2021/05/29 08:58:35;;;;;;;4.30;2.17;;;;;;;;;;5019552;28;20508;-69
2021/05/29 09:01:02;;;;;;;6.37;2.07;;;;;;;;;;5020241;28;20517;-69
2021/05/29 09:03:45;;;;;;;3.40;1.83;;;;;;;;;;5020054;28;20450;-69
2021/05/29 09:06:12;;;;;;;3.20;2.20;;;;;;;;;;5019409;28;20479;-69
2021/05/29 09:08:47;;;;;;;2.70;1.60;;;;;;;;;;5018875;28;20506;-70
2021/05/29 09:11:15;;;;;;;3.10;1.80;;;;;;;;;;5019612;28;20422;-69
2021/05/29 09:13:41;;;;;;;3.70;2.03;;;;;;;;;;5019154;28;20442;-68
2021/05/29 09:16:08;;;;;;;4.00;2.80;;;;;;;;;;5016672;28;20496;-69
2021/05/29 09:18:37;;;;;;;2.40;1.60;;;;;;;;;;5021072;28;20797;-69
2021/05/29 09:21:23;;;;;;;5.77;1.93;;;;;;;;;;5016112;28;20466;-67
2021/05/29 09:23:51;;;;;;;2.63;1.87;;;;;;;;;;5013769;28;21031;-67
2021/05/29 09:26:17;;;;;;;2.90;1.80;;;;;;;;;;5015837;28;20893;-68
2021/05/29 09:28:44;;;;;;;3.10;2.33;;;;;;;;;;5016336;28;20926;-67
2021/05/29 09:31:14;;;;;;;3.33;2.13;;;;;;;;;;5016420;28;20438;-68
2021/05/29 09:33:41;;;;;;;3.57;2.20;;;;;;;;;;5015105;28;20475;-68
2021/05/29 09:36:11;;;;;;;3.40;1.80;;;;;;;;;;5014805;28;20430;-68
2021/05/29 09:38:49;;;;;;;2.80;1.93;;;;;;;;;;5015193;28;20500;-68
2021/05/29 09:41:32;;;;;;;3.73;2.07;;;;;;;;;;5013579;28;20819;-69
2021/05/29 09:43:58;;;;;;;3.20;1.73;;;;;;;;;;5017551;28;22317;-67
2021/05/29 09:46:25;;;;;;;2.10;1.70;;;;;;;;;;5015357;28;20434;-68
2021/05/29 09:48:56;;;;;;;3.50;1.90;;;;;;;;;;5016815;28;20465;-68
2021/05/29 09:51:22;;;;;;;2.20;1.30;;;;;;;;;;5015873;28;20537;-68
2021/05/29 09:53:49;;;;;;;4.80;1.70;;;;;;;;;;5017736;28;20461;-69
2021/05/29 09:56:26;;;;;;;3.23;1.90;;;;;;;;;;5027525;28;20469;-68
2021/05/29 09:59:02;;;;;;;2.50;1.80;;;;;;;;;;5014855;28;21064;-68
2021/05/29 10:01:44;;;;;;;2.93;2.00;;;;;;;;;;5030893;28;20442;-68
2021/05/29 10:04:12;;;;;;;3.30;1.47;;;;;;;;;;5013738;28;20468;-67
2021/05/29 10:06:38;;;;;;;4.10;2.37;;;;;;;;;;5014930;28;20415;-68
2021/05/29 10:09:05;;;;;;;4.23;2.53;;;;;;;;;;5016934;28;20801;-69
2021/05/29 10:11:32;;;;;;;3.47;2.20;;;;;;;;;;5013813;28;20426;-67
2021/05/29 10:13:58;;;;;;;3.27;2.17;;;;;;;;;;5016038;28;20557;-67
2021/05/29 10:16:25;;;;;;;4.70;2.20;;;;;;;;;;5014210;28;20422;-68
2021/05/29 10:18:55;;;;;;;5.90;2.10;;;;;;;;;;5013067;28;20438;-68
2021/05/29 10:21:22;;;;;;;4.60;2.30;;;;;;;;;;5014200;28;20506;-67
2021/05/29 10:23:48;;;;;;;3.07;2.37;;;;;;;;;;5014295;28;20443;-68
2021/05/29 10:26:18;;;;;;;2.93;1.77;;;;;;;;;;5014634;28;20924;-67
2021/05/29 10:28:47;;;;;;;4.13;2.00;;;;;;;;;;5016431;28;20448;-67
2021/05/29 10:31:13;;;;;;;2.87;1.97;;;;;;;;;;5013191;28;21073;-67
2021/05/29 10:33:40;;;;;;;3.50;2.37;;;;;;;;;;5015375;28;20446;-67
2021/05/29 10:36:07;;;;;;;2.87;1.90;;;;;;;;;;5014236;28;20430;-67
2021/05/29 10:38:42;;;;;;;2.60;1.77;;;;;;;;;;5015067;28;20458;-67
2021/05/29 10:41:08;;;;;;;2.63;1.80;;;;;;;;;;5015643;28;20455;-67
2021/05/29 10:43:36;;;;;;;5.07;2.73;;;;;;;;;;5022344;28;20432;-67
2021/05/29 10:46:07;;;;;;;3.50;2.07;;;;;;;;;;5014475;28;20897;-67
2021/05/29 10:48:42;;;;;;;6.67;2.20;;;;;;;;;;5014195;28;20486;-68
2021/05/29 10:51:12;;;;;;;2.77;1.90;;;;;;;;;;5013483;28;20469;-67
2021/05/29 10:53:57;;;;;;;3.50;2.30;;;;;;;;;;5011631;28;20509;-67
2021/05/29 10:56:24;;;;;;;2.83;2.30;;;;;;;;;;5015736;28;20536;-66
2021/05/29 10:59:04;;;;;;;2.80;1.73;;;;;;;;;;5015570;28;20462;-67
2021/05/29 11:01:51;;;;;;;2.53;1.80;;;;;;;;;;5015107;28;20466;-67
2021/05/29 11:04:17;;;;;;;2.73;1.60;;;;;;;;;;5006146;28;20450;-66
2021/05/29 11:06:43;;;;;;;2.63;1.90;;;;;;;;;;5013794;28;20784;-67
2021/05/29 11:09:10;;;;;;;2.87;2.10;;;;;;;;;;5017437;28;20447;-66
2021/05/29 11:11:42;;;;;;;3.60;1.90;;;;;;;;;;5013016;28;20425;-66
2021/05/29 11:14:11;;;;;;;4.10;2.00;;;;;;;;;;5014061;28;20476;-67
2021/05/29 11:16:47;;;;;;;3.37;2.10;;;;;;;;;;5013861;28;20427;-67
2021/05/29 11:19:33;;;;;;;3.17;1.90;;;;;;;;;;5023374;28;20438;-67
2021/05/29 11:22:07;;;;;;;2.17;1.60;;;;;;;;;;5026731;28;20617;-66
2021/05/29 11:24:40;;;;;;;3.10;1.80;;;;;;;;;;5013624;28;20426;-67
2021/05/29 11:27:08;;;;;;;2.73;1.60;;;;;;;;;;5013539;28;20455;-67
2021/05/29 11:29:52;;;;;;;2.20;1.40;;;;;;;;;;5012783;28;20444;-67
2021/05/29 11:32:44;;;;;;;2.57;2.00;;;;;;;;;;5012957;28;20481;-67
2021/05/29 11:35:31;;;;;;;4.63;1.97;;;;;;;;;;5014471;28;20513;-66
2021/05/29 11:38:02;;;;;;;2.90;1.90;;;;;;;;;;5012116;28;20547;-67
2021/05/29 11:40:40;;;;;;;2.83;1.70;;;;;;;;;;5012002;28;20477;-66
2021/05/29 11:43:06;;;;;;;2.83;1.70;;;;;;;;;;5011415;28;20929;-67
2021/05/29 11:45:32;;;;;;;2.20;1.53;;;;;;;;;;5013241;28;20423;-66
2021/05/29 11:47:58;;;;;;;2.50;1.57;;;;;;;;;;5013440;28;20605;-67
2021/05/29 11:50:25;;;;;;;3.23;1.90;;;;;;;;;;5011911;28;21006;-67
2021/05/29 11:52:51;;;;;;;4.13;1.70;;;;;;;;;;5029141;28;20427;-67
2021/05/29 11:55:18;;;;;;;2.33;1.80;;;;;;;;;;5013042;28;20431;-67
2021/05/29 11:57:58;;;;;;;2.00;1.20;;;;;;;;;;5026570;28;20469;-66
2021/05/29 12:00:24;;;;;;;2.60;1.60;;;;;;;;;;5011306;28;20959;-67
2021/05/29 12:02:53;;;;;;;2.47;1.63;;;;;;;;;;5011309;28;20430;-67
2021/05/29 12:05:20;;;;;;;2.63;1.67;;;;;;;;;;5013051;28;20414;-67
2021/05/29 12:08:02;;;;;;;2.90;1.70;;;;;;;;;;5011051;28;20498;-67
2021/05/29 12:10:45;;;;;;;2.17;1.30;;;;;;;;;;5014996;28;20435;-67
2021/05/29 12:13:20;;;;;;;2.90;1.83;;;;;;;;;;5025500;28;21086;-67
2021/05/29 12:15:52;;;;;;;4.87;2.10;;;;;;;;;;5012628;28;20515;-67
2021/05/29 12:18:18;;;;;;;2.37;1.50;;;;;;;;;;5012986;28;20454;-66
2021/05/29 12:21:02;;;;;;;2.23;1.60;;;;;;;;;;5012697;28;20458;-66
2021/05/29 12:23:28;;;;;;;2.30;1.50;;;;;;;;;;5011240;28;20744;-67
2021/05/29 12:25:54;;;;;;;5.60;1.40;;;;;;;;;;5012694;28;20414;-66
2021/05/29 12:28:23;;;;;;;2.40;1.83;;;;;;;;;;5012181;28;20904;-67
2021/05/29 12:30:53;;;;;;;2.23;1.50;;;;;;;;;;5013289;28;20483;-66
2021/05/29 12:33:20;;;;;;;2.90;1.70;;;;;;;;;;5015464;28;20461;-67
2021/05/29 12:35:46;;;;;;;2.43;1.50;;;;;;;;;;5012266;28;20464;-68
2021/05/29 12:38:14;;;;;;;2.60;1.70;;;;;;;;;;5011228;28;20462;-67
2021/05/29 12:40:53;;;;;;;3.33;1.60;;;;;;;;;;5013494;28;20512;-66
2021/05/29 12:43:19;;;;;;;2.77;1.30;;;;;;;;;;5012066;28;20796;-67
2021/05/29 12:45:45;;;;;;;2.80;1.60;;;;;;;;;;5012281;28;20905;-66
2021/05/29 12:48:13;;;;;;;2.07;1.30;;;;;;;;;;5012628;28;21002;-66
2021/05/29 12:50:59;;;;;;;2.30;1.50;;;;;;;;;;5014338;28;20433;-66
2021/05/29 12:53:26;;;;;;;2.93;1.50;;;;;;;;;;5013987;28;20772;-66
2021/05/29 12:56:07;;;;;;;2.47;1.23;;;;;;;;;;5017088;28;20438;-66
2021/05/29 12:58:33;;;;;;;2.97;1.50;;;;;;;;;;5016380;28;20552;-66
2021/05/29 13:12:17;;;;;;;3.27;1.80;;;;;;;;;;5015156;28;20503;-66
2021/05/29 13:14:43;;;;;;;2.27;1.43;;;;;;;;;;5013153;28;20464;-66
2021/05/29 13:17:21;;;;;;;2.13;1.30;;;;;;;;;;5017481;28;20438;-68
2021/05/29 13:19:49;;;;;;;3.40;1.80;;;;;;;;;;5016158;28;20480;-67
2021/05/29 13:22:17;;;;;;;2.00;1.37;;;;;;;;;;5015954;28;20694;-66
2021/05/29 13:24:43;;;;;;;2.50;1.40;;;;;;;;;;5016593;28;20418;-67
2021/05/29 13:27:10;;;;;;;2.33;1.43;;;;;;;;;;5014457;28;21178;-66
2021/05/29 13:29:36;;;;;;;2.13;1.43;;;;;;;;;;5014583;28;20556;-67
2021/05/29 13:32:03;;;;;;;2.20;1.50;;;;;;;;;;5015593;28;20435;-67
2021/05/29 13:34:29;;;;;;;2.43;1.43;;;;;;;;;;5014870;28;21904;-67
2021/05/29 13:36:55;;;;;;;2.47;1.20;;;;;;;;;;5016580;28;20431;-68
2021/05/29 13:39:22;;;;;;;2.10;1.03;;;;;;;;;;5014624;28;21298;-67
2021/05/29 13:41:48;;;;;;;1.90;1.40;;;;;;;;;;5015277;28;20545;-67
2021/05/29 13:44:14;;;;;;;2.50;1.30;;;;;;;;;;5016677;28;20430;-66
2021/05/29 13:46:40;;;;;;;2.00;1.43;;;;;;;;;;5013988;28;20430;-66
2021/05/29 13:49:06;;;;;;;2.73;1.30;;;;;;;;;;5016703;28;20446;-66
2021/05/29 13:51:36;;;;;;;3.00;1.33;;;;;;;;;;5014191;28;20504;-68
2021/05/29 13:54:03;;;;;;;3.70;1.57;;;;;;;;;;5016211;28;20484;-68
2021/05/29 13:56:30;;;;;;;5.77;1.50;;;;;;;;;;5017280;28;20427;-67
2021/05/29 13:58:57;;;;;;;2.40;1.57;;;;;;;;;;5041654;23;20654;-82
2021/05/29 14:01:25;;;;;;;2.10;1.27;;;;;;;;;;5050822;28;20531;-83
2021/05/29 14:03:51;;;;;;;2.13;1.00;;;;;;;;;;5023698;28;20472;-83
2021/05/29 14:06:18;;;;;;;2.20;1.10;;;;;;;;;;5022210;28;20516;-83
2021/05/29 14:08:44;;;;;;;2.20;1.50;;;;;;;;;;5039590;28;20423;-79
2021/05/29 14:11:16;;;;;;;1.80;1.10;;;;;;;;;;5024652;28;20518;-82
2021/05/29 14:13:43;;;;;;;2.60;1.30;;;;;;;;;;5024787;28;20455;-83
2021/05/29 14:16:09;;;;;;;2.50;1.10;;;;;;;;;;5020893;28;20431;-83
2021/05/29 14:18:35;;;;;;;2.17;1.27;;;;;;;;;;5021817;28;20430;-81
2021/05/29 14:21:02;;;;;;;1.93;1.10;;;;;;;;;;5020585;28;20459;-83
2021/05/29 14:23:28;;;;;;;2.83;1.23;;;;;;;;;;5021139;28;20476;-81
2021/05/29 14:25:54;;;;;;;3.07;1.47;;;;;;;;;;5017364;28;20450;-81
2021/05/29 14:28:20;;;;;;;1.97;1.17;;;;;;;;;;5022234;28;20423;-81
2021/05/29 14:30:46;;;;;;;2.00;1.03;;;;;;;;;;5024242;28;20431;-82
2021/05/29 14:33:12;;;;;;;1.77;1.03;;;;;;;;;;5022400;28;20470;-81
2021/05/29 14:35:38;;;;;;;2.23;1.07;;;;;;;;;;5016791;28;20426;-81
2021/05/29 14:38:04;;;;;;;3.83;1.23;;;;;;;;;;5016572;28;21094;-82
2021/05/29 14:40:30;;;;;;;2.20;1.03;;;;;;;;;;5017313;28;20442;-81
2021/05/29 14:42:56;;;;;;;2.90;1.20;;;;;;;;;;5020549;28;20438;-82
2021/05/29 14:45:23;;;;;;;1.90;1.20;;;;;;;;;;5016917;28;20435;-82
2021/05/29 14:47:49;;;;;;;2.23;1.20;;;;;;;;;;5020177;28;20427;-81
2021/05/29 14:50:15;;;;;;;2.07;1.30;;;;;;;;;;5024482;28;20427;-81
2021/05/29 14:52:41;;;;;;;2.53;1.40;;;;;;;;;;5022850;28;20443;-82
2021/05/29 14:55:18;;;;;;;1.90;1.20;;;;;;;;;;5023037;28;20466;-83
2021/05/29 14:57:49;;;;;;;2.13;1.37;;;;;;;;;;5021366;28;20451;-81
2021/05/29 15:00:17;;;;;;;6.70;1.30;;;;;;;;;;5018552;28;20474;-81
2021/05/29 15:02:47;;;;;;;2.40;1.30;;;;;;;;;;5022116;28;20966;-82
2021/05/29 15:05:15;;;;;;;3.33;1.27;;;;;;;;;;5021898;28;20423;-83
2021/05/29 15:07:42;;;;;;;2.00;1.07;;;;;;;;;;5017281;28;20430;-81
2021/05/29 15:10:08;;;;;;;2.03;1.27;;;;;;;;;;5020911;28;20454;-82
2021/05/29 15:12:35;;;;;;;2.40;1.20;;;;;;;;;;5017593;28;20451;-82